sensor_id;sensor_type;location;lat;lon;timestamp;P1;durP1;ratioP1;P2;durP2;ratioP2
36253;SDS011;22291;52.250;21.228;2023-03-01T00:01:26;59.00;;;30.35;;
36253;SDS011;22291;52.250;21.228;2023-03-01T00:03:55;59.23;;;29.98;;
36253;SDS011;22291;52.250;21.228;2023-03-01T00:06:24;65.42;;;29.67;;
36253;SDS011;22291;52.250;21.228;2023-03-01T00:08:53;68.33;;;31.77;;
36253;SDS011;22291;52.250;21.228;2023-03-01T00:11:28;63.02;;;30.23;;
36253;SDS011;22291;52.250;21.228;2023-03-01T00:13:58;65.72;;;31.87;;
36253;SDS011;22291;52.250;21.228;2023-03-01T00:16:29;66.47;;;31.62;;
36253;SDS011;22291;52.250;21.228;2023-03-01T00:18:59;65.57;;;32.70;;
36253;SDS011;22291;52.250;21.228;2023-03-01T00:21:29;70.03;;;33.50;;
36253;SDS011;22291;52.250;21.228;2023-03-01T00:23:56;68.12;;;33.15;;
36253;SDS011;22291;52.250;21.228;2023-03-01T00:26:25;76.02;;;34.13;;
36253;SDS011;22291;52.250;21.228;2023-03-01T00:28:53;73.12;;;33.88;;
36253;SDS011;22291;52.250;21.228;2023-03-01T00:31:24;72.30;;;33.88;;
36253;SDS011;22291;52.250;21.228;2023-03-01T00:33:55;76.12;;;34.67;;
36253;SDS011;22291;52.250;21.228;2023-03-01T00:36:27;76.95;;;36.83;;
36253;SDS011;22291;52.250;21.228;2023-03-01T00:38:58;73.52;;;35.63;;
36253;SDS011;22291;52.250;21.228;2023-03-01T00:41:27;79.07;;;36.33;;
36253;SDS011;22291;52.250;21.228;2023-03-01T00:43:55;78.70;;;35.35;;
36253;SDS011;22291;52.250;21.228;2023-03-01T00:46:23;77.17;;;35.25;;
36253;SDS011;22291;52.250;21.228;2023-03-01T00:48:53;74.65;;;34.27;;
36253;SDS011;22291;52.250;21.228;2023-03-01T00:51:21;82.10;;;36.28;;
36253;SDS011;22291;52.250;21.228;2023-03-01T00:53:52;71.50;;;35.58;;
36253;SDS011;22291;52.250;21.228;2023-03-01T00:56:22;72.35;;;34.88;;
36253;SDS011;22291;52.250;21.228;2023-03-01T00:58:50;76.90;;;36.30;;
36253;SDS011;22291;52.250;21.228;2023-03-01T01:01:21;76.00;;;35.95;;
36253;SDS011;22291;52.250;21.228;2023-03-01T01:03:57;82.20;;;38.78;;
36253;SDS011;22291;52.250;21.228;2023-03-01T01:06:27;77.45;;;38.25;;
36253;SDS011;22291;52.250;21.228;2023-03-01T01:09:00;76.12;;;35.63;;
36253;SDS011;22291;52.250;21.228;2023-03-01T01:11:31;72.75;;;35.35;;
36253;SDS011;22291;52.250;21.228;2023-03-01T01:14:00;76.35;;;34.90;;
36253;SDS011;22291;52.250;21.228;2023-03-01T01:16:28;81.78;;;35.73;;
36253;SDS011;22291;52.250;21.228;2023-03-01T01:18:56;69.17;;;33.73;;
36253;SDS011;22291;52.250;21.228;2023-03-01T01:21:24;73.52;;;34.95;;
36253;SDS011;22291;52.250;21.228;2023-03-01T01:23:53;76.85;;;35.60;;
36253;SDS011;22291;52.250;21.228;2023-03-01T01:26:22;70.92;;;35.03;;
36253;SDS011;22291;52.250;21.228;2023-03-01T01:28:53;81.55;;;36.48;;
36253;SDS011;22291;52.250;21.228;2023-03-01T01:31:21;79.53;;;36.00;;
36253;SDS011;22291;52.250;21.228;2023-03-01T01:33:49;77.08;;;36.73;;
36253;SDS011;22291;52.250;21.228;2023-03-01T01:36:18;77.12;;;36.25;;
36253;SDS011;22291;52.250;21.228;2023-03-01T01:38:48;78.37;;;36.53;;
36253;SDS011;22291;52.250;21.228;2023-03-01T01:41:16;75.37;;;35.60;;
36253;SDS011;22291;52.250;21.228;2023-03-01T01:43:48;82.10;;;37.58;;
36253;SDS011;22291;52.250;21.228;2023-03-01T01:46:40;73.45;;;36.15;;
36253;SDS011;22291;52.250;21.228;2023-03-01T01:49:18;75.60;;;35.55;;
36253;SDS011;22291;52.250;21.228;2023-03-01T01:51:55;74.87;;;34.15;;
36253;SDS011;22291;52.250;21.228;2023-03-01T01:54:44;72.65;;;32.95;;
36253;SDS011;22291;52.250;21.228;2023-03-01T01:57:28;71.53;;;34.38;;
36253;SDS011;22291;52.250;21.228;2023-03-01T02:00:10;83.58;;;37.17;;
36253;SDS011;22291;52.250;21.228;2023-03-01T02:02:42;81.90;;;37.60;;
36253;SDS011;22291;52.250;21.228;2023-03-01T02:05:17;78.15;;;36.45;;
36253;SDS011;22291;52.250;21.228;2023-03-01T02:07:45;82.90;;;37.53;;
36253;SDS011;22291;52.250;21.228;2023-03-01T02:10:14;75.60;;;36.28;;
36253;SDS011;22291;52.250;21.228;2023-03-01T02:12:41;80.42;;;36.65;;
36253;SDS011;22291;52.250;21.228;2023-03-01T02:15:09;76.53;;;36.75;;
36253;SDS011;22291;52.250;21.228;2023-03-01T02:17:38;76.12;;;34.95;;
36253;SDS011;22291;52.250;21.228;2023-03-01T02:20:12;78.65;;;36.77;;
36253;SDS011;22291;52.250;21.228;2023-03-01T02:22:40;74.10;;;36.33;;
36253;SDS011;22291;52.250;21.228;2023-03-01T02:27:59;78.22;;;35.13;;
36253;SDS011;22291;52.250;21.228;2023-03-01T02:30:42;83.40;;;36.53;;
36253;SDS011;22291;52.250;21.228;2023-03-01T02:33:34;78.22;;;36.85;;
36253;SDS011;22291;52.250;21.228;2023-03-01T02:36:06;83.42;;;36.17;;
36253;SDS011;22291;52.250;21.228;2023-03-01T02:38:38;87.10;;;37.83;;
36253;SDS011;22291;52.250;21.228;2023-03-01T02:41:07;79.07;;;37.78;;
36253;SDS011;22291;52.250;21.228;2023-03-01T02:43:38;89.90;;;37.13;;
36253;SDS011;22291;52.250;21.228;2023-03-01T02:46:07;75.55;;;35.25;;
36253;SDS011;22291;52.250;21.228;2023-03-01T02:48:48;72.30;;;35.38;;
36253;SDS011;22291;52.250;21.228;2023-03-01T02:57:04;75.12;;;34.53;;
36253;SDS011;22291;52.250;21.228;2023-03-01T02:59:34;82.72;;;36.95;;
36253;SDS011;22291;52.250;21.228;2023-03-01T03:02:05;77.95;;;35.15;;
36253;SDS011;22291;52.250;21.228;2023-03-01T03:04:36;83.72;;;37.73;;
36253;SDS011;22291;52.250;21.228;2023-03-01T03:07:02;77.45;;;34.18;;
36253;SDS011;22291;52.250;21.228;2023-03-01T03:09:28;82.82;;;36.33;;
36253;SDS011;22291;52.250;21.228;2023-03-01T03:11:54;75.92;;;34.85;;
36253;SDS011;22291;52.250;21.228;2023-03-01T03:14:20;82.82;;;37.48;;
36253;SDS011;22291;52.250;21.228;2023-03-01T03:16:49;79.17;;;35.75;;
36253;SDS011;22291;52.250;21.228;2023-03-01T03:19:17;76.70;;;34.75;;
36253;SDS011;22291;52.250;21.228;2023-03-01T03:21:45;82.78;;;37.20;;
36253;SDS011;22291;52.250;21.228;2023-03-01T03:24:13;78.42;;;37.35;;
36253;SDS011;22291;52.250;21.228;2023-03-01T03:26:39;76.17;;;36.48;;
36253;SDS011;22291;52.250;21.228;2023-03-01T03:29:05;78.87;;;35.63;;
36253;SDS011;22291;52.250;21.228;2023-03-01T03:31:32;80.75;;;35.30;;
36253;SDS011;22291;52.250;21.228;2023-03-01T03:33:59;77.30;;;36.20;;
36253;SDS011;22291;52.250;21.228;2023-03-01T03:36:26;72.50;;;33.70;;
36253;SDS011;22291;52.250;21.228;2023-03-01T03:38:54;79.72;;;36.58;;
36253;SDS011;22291;52.250;21.228;2023-03-01T03:41:20;74.67;;;34.23;;
36253;SDS011;22291;52.250;21.228;2023-03-01T03:43:47;74.25;;;34.25;;
36253;SDS011;22291;52.250;21.228;2023-03-01T03:46:15;77.72;;;35.98;;
36253;SDS011;22291;52.250;21.228;2023-03-01T03:48:43;77.75;;;34.58;;
36253;SDS011;22291;52.250;21.228;2023-03-01T03:51:13;70.20;;;32.48;;
36253;SDS011;22291;52.250;21.228;2023-03-01T03:53:42;70.70;;;31.35;;
36253;SDS011;22291;52.250;21.228;2023-03-01T03:56:11;72.87;;;33.05;;
36253;SDS011;22291;52.250;21.228;2023-03-01T03:58:39;68.72;;;29.37;;
36253;SDS011;22291;52.250;21.228;2023-03-01T04:01:06;73.42;;;35.55;;
36253;SDS011;22291;52.250;21.228;2023-03-01T04:03:32;74.87;;;33.70;;
36253;SDS011;22291;52.250;21.228;2023-03-01T04:06:01;76.47;;;34.67;;
36253;SDS011;22291;52.250;21.228;2023-03-01T04:08:30;72.08;;;34.05;;
36253;SDS011;22291;52.250;21.228;2023-03-01T04:11:04;75.90;;;35.58;;
36253;SDS011;22291;52.250;21.228;2023-03-01T04:13:31;64.25;;;28.07;;
36253;SDS011;22291;52.250;21.228;2023-03-01T04:15:57;72.25;;;33.35;;
36253;SDS011;22291;52.250;21.228;2023-03-01T04:18:24;73.17;;;34.48;;
36253;SDS011;22291;52.250;21.228;2023-03-01T04:20:52;77.47;;;35.03;;
36253;SDS011;22291;52.250;21.228;2023-03-01T04:23:20;67.80;;;32.10;;
36253;SDS011;22291;52.250;21.228;2023-03-01T04:25:53;78.65;;;33.60;;
36253;SDS011;22291;52.250;21.228;2023-03-01T04:28:25;76.30;;;33.38;;
36253;SDS011;22291;52.250;21.228;2023-03-01T04:31:01;71.85;;;32.83;;
36253;SDS011;22291;52.250;21.228;2023-03-01T04:33:34;73.07;;;34.10;;
36253;SDS011;22291;52.250;21.228;2023-03-01T04:36:01;79.47;;;34.80;;
36253;SDS011;22291;52.250;21.228;2023-03-01T04:38:31;74.95;;;33.28;;
36253;SDS011;22291;52.250;21.228;2023-03-01T04:40:59;80.67;;;33.02;;
36253;SDS011;22291;52.250;21.228;2023-03-01T04:43:28;69.17;;;30.52;;
36253;SDS011;22291;52.250;21.228;2023-03-01T04:45:59;75.37;;;31.50;;
36253;SDS011;22291;52.250;21.228;2023-03-01T04:48:35;63.90;;;30.48;;
36253;SDS011;22291;52.250;21.228;2023-03-01T04:51:06;74.77;;;32.33;;
36253;SDS011;22291;52.250;21.228;2023-03-01T04:53:35;66.70;;;32.63;;
36253;SDS011;22291;52.250;21.228;2023-03-01T04:56:04;72.62;;;29.55;;
36253;SDS011;22291;52.250;21.228;2023-03-01T04:58:32;68.52;;;29.55;;
36253;SDS011;22291;52.250;21.228;2023-03-01T05:01:00;68.33;;;28.80;;
36253;SDS011;22291;52.250;21.228;2023-03-01T05:03:26;68.40;;;31.27;;
36253;SDS011;22291;52.250;21.228;2023-03-01T05:05:54;67.50;;;28.32;;
36253;SDS011;22291;52.250;21.228;2023-03-01T05:08:25;69.65;;;32.75;;
36253;SDS011;22291;52.250;21.228;2023-03-01T05:10:53;80.97;;;34.78;;
36253;SDS011;22291;52.250;21.228;2023-03-01T05:13:20;77.10;;;35.60;;
36253;SDS011;22291;52.250;21.228;2023-03-01T05:15:53;78.97;;;35.05;;
36253;SDS011;22291;52.250;21.228;2023-03-01T05:18:23;79.67;;;34.30;;
36253;SDS011;22291;52.250;21.228;2023-03-01T05:20:55;71.85;;;32.73;;
36253;SDS011;22291;52.250;21.228;2023-03-01T05:23:30;80.60;;;34.10;;
36253;SDS011;22291;52.250;21.228;2023-03-01T05:26:00;67.17;;;32.70;;
36253;SDS011;22291;52.250;21.228;2023-03-01T05:28:29;75.40;;;32.73;;
36253;SDS011;22291;52.250;21.228;2023-03-01T05:30:58;48.08;;;23.90;;
36253;SDS011;22291;52.250;21.228;2023-03-01T05:33:24;69.37;;;32.38;;
36253;SDS011;22291;52.250;21.228;2023-03-01T05:35:53;66.05;;;31.90;;
36253;SDS011;22291;52.250;21.228;2023-03-01T05:38:20;70.87;;;32.98;;
36253;SDS011;22291;52.250;21.228;2023-03-01T05:40:48;75.12;;;34.50;;
36253;SDS011;22291;52.250;21.228;2023-03-01T05:43:16;77.58;;;34.08;;
36253;SDS011;22291;52.250;21.228;2023-03-01T05:45:43;74.60;;;33.58;;
36253;SDS011;22291;52.250;21.228;2023-03-01T05:48:11;70.97;;;33.18;;
36253;SDS011;22291;52.250;21.228;2023-03-01T05:50:43;70.87;;;33.60;;
36253;SDS011;22291;52.250;21.228;2023-03-01T05:53:13;79.42;;;34.15;;
36253;SDS011;22291;52.250;21.228;2023-03-01T05:55:45;74.40;;;32.48;;
36253;SDS011;22291;52.250;21.228;2023-03-01T05:58:14;74.30;;;33.83;;
36253;SDS011;22291;52.250;21.228;2023-03-01T06:00:46;73.35;;;32.70;;
36253;SDS011;22291;52.250;21.228;2023-03-01T06:03:16;77.85;;;33.60;;
36253;SDS011;22291;52.250;21.228;2023-03-01T06:05:43;76.90;;;36.80;;
36253;SDS011;22291;52.250;21.228;2023-03-01T06:08:11;70.08;;;33.28;;
36253;SDS011;22291;52.250;21.228;2023-03-01T06:10:39;72.10;;;34.98;;
36253;SDS011;22291;52.250;21.228;2023-03-01T06:13:06;74.87;;;34.27;;
36253;SDS011;22291;52.250;21.228;2023-03-01T06:15:34;81.92;;;36.17;;
36253;SDS011;22291;52.250;21.228;2023-03-01T06:18:01;73.17;;;35.63;;
36253;SDS011;22291;52.250;21.228;2023-03-01T06:20:28;79.10;;;36.08;;
36253;SDS011;22291;52.250;21.228;2023-03-01T06:22:56;78.40;;;36.70;;
36253;SDS011;22291;52.250;21.228;2023-03-01T06:25:24;76.20;;;36.73;;
36253;SDS011;22291;52.250;21.228;2023-03-01T06:27:53;73.45;;;36.60;;
36253;SDS011;22291;52.250;21.228;2023-03-01T06:30:21;76.75;;;36.58;;
36253;SDS011;22291;52.250;21.228;2023-03-01T06:32:51;73.00;;;36.23;;
36253;SDS011;22291;52.250;21.228;2023-03-01T06:35:20;75.08;;;36.15;;
36253;SDS011;22291;52.250;21.228;2023-03-01T06:37:47;77.70;;;37.50;;
36253;SDS011;22291;52.250;21.228;2023-03-01T06:40:15;81.17;;;38.70;;
36253;SDS011;22291;52.250;21.228;2023-03-01T06:42:42;82.85;;;39.75;;
36253;SDS011;22291;52.250;21.228;2023-03-01T06:45:17;79.75;;;37.78;;
36253;SDS011;22291;52.250;21.228;2023-03-01T06:47:46;88.15;;;38.90;;
36253;SDS011;22291;52.250;21.228;2023-03-01T06:50:16;90.90;;;41.80;;
36253;SDS011;22291;52.250;21.228;2023-03-01T06:52:45;89.00;;;40.48;;
36253;SDS011;22291;52.250;21.228;2023-03-01T06:55:12;86.70;;;41.42;;
36253;SDS011;22291;52.250;21.228;2023-03-01T06:57:39;83.95;;;40.83;;
36253;SDS011;22291;52.250;21.228;2023-03-01T07:00:07;83.35;;;42.83;;
36253;SDS011;22291;52.250;21.228;2023-03-01T07:02:35;86.10;;;39.60;;
36253;SDS011;22291;52.250;21.228;2023-03-01T07:05:01;81.85;;;38.88;;
36253;SDS011;22291;52.250;21.228;2023-03-01T07:07:28;84.37;;;42.30;;
36253;SDS011;22291;52.250;21.228;2023-03-01T07:09:55;81.92;;;40.58;;
36253;SDS011;22291;52.250;21.228;2023-03-01T07:12:22;112.47;;;53.80;;
36253;SDS011;22291;52.250;21.228;2023-03-01T07:14:48;88.00;;;43.42;;
36253;SDS011;22291;52.250;21.228;2023-03-01T07:17:14;84.83;;;42.20;;
36253;SDS011;22291;52.250;21.228;2023-03-01T07:19:40;87.37;;;41.25;;
36253;SDS011;22291;52.250;21.228;2023-03-01T07:22:07;83.82;;;39.45;;
36253;SDS011;22291;52.250;21.228;2023-03-01T07:24:34;86.63;;;41.92;;
36253;SDS011;22291;52.250;21.228;2023-03-01T07:27:01;79.17;;;39.83;;
36253;SDS011;22291;52.250;21.228;2023-03-01T07:29:27;81.65;;;40.08;;
36253;SDS011;22291;52.250;21.228;2023-03-01T07:31:54;74.82;;;37.40;;
36253;SDS011;22291;52.250;21.228;2023-03-01T07:34:20;78.42;;;37.88;;
36253;SDS011;22291;52.250;21.228;2023-03-01T07:36:47;71.60;;;37.80;;
36253;SDS011;22291;52.250;21.228;2023-03-01T07:39:13;73.37;;;36.25;;
36253;SDS011;22291;52.250;21.228;2023-03-01T07:41:39;60.95;;;31.97;;
36253;SDS011;22291;52.250;21.228;2023-03-01T07:44:05;58.78;;;31.30;;
36253;SDS011;22291;52.250;21.228;2023-03-01T07:46:31;55.65;;;28.40;;
36253;SDS011;22291;52.250;21.228;2023-03-01T07:48:58;54.93;;;26.07;;
36253;SDS011;22291;52.250;21.228;2023-03-01T07:51:24;50.48;;;24.50;;
36253;SDS011;22291;52.250;21.228;2023-03-01T07:53:50;49.65;;;24.72;;
36253;SDS011;22291;52.250;21.228;2023-03-01T07:56:16;55.17;;;24.70;;
36253;SDS011;22291;52.250;21.228;2023-03-01T07:58:44;49.88;;;23.50;;
36253;SDS011;22291;52.250;21.228;2023-03-01T08:01:12;52.48;;;23.38;;
36253;SDS011;22291;52.250;21.228;2023-03-01T08:03:41;83.72;;;73.97;;
36253;SDS011;22291;52.250;21.228;2023-03-01T08:06:10;103.97;;;94.17;;
36253;SDS011;22291;52.250;21.228;2023-03-01T08:08:38;100.35;;;91.15;;
36253;SDS011;22291;52.250;21.228;2023-03-01T08:11:06;103.97;;;94.58;;
36253;SDS011;22291;52.250;21.228;2023-03-01T08:16:05;51.90;;;21.30;;
36253;SDS011;22291;52.250;21.228;2023-03-01T08:18:32;57.93;;;48.73;;
36253;SDS011;22291;52.250;21.228;2023-03-01T08:21:09;104.15;;;94.52;;
36253;SDS011;22291;52.250;21.228;2023-03-01T08:23:39;99.67;;;90.87;;
36253;SDS011;22291;52.250;21.228;2023-03-01T08:26:11;98.65;;;90.00;;
36253;SDS011;22291;52.250;21.228;2023-03-01T08:28:43;97.82;;;88.82;;
36253;SDS011;22291;52.250;21.228;2023-03-01T08:31:15;100.22;;;91.12;;
36253;SDS011;22291;52.250;21.228;2023-03-01T08:33:49;96.55;;;88.25;;
36253;SDS011;22291;52.250;21.228;2023-03-01T08:36:23;97.82;;;89.50;;
36253;SDS011;22291;52.250;21.228;2023-03-01T08:38:54;97.92;;;89.10;;
36253;SDS011;22291;52.250;21.228;2023-03-01T08:41:22;95.92;;;87.78;;
36253;SDS011;22291;52.250;21.228;2023-03-01T08:43:50;95.87;;;88.05;;
36253;SDS011;22291;52.250;21.228;2023-03-01T08:46:18;99.15;;;89.87;;
36253;SDS011;22291;52.250;21.228;2023-03-01T08:48:44;94.67;;;86.72;;
36253;SDS011;22291;52.250;21.228;2023-03-01T08:51:14;97.10;;;88.90;;
36253;SDS011;22291;52.250;21.228;2023-03-01T08:53:43;95.28;;;86.75;;
36253;SDS011;22291;52.250;21.228;2023-03-01T08:56:11;96.67;;;87.97;;
36253;SDS011;22291;52.250;21.228;2023-03-01T08:58:38;98.42;;;90.20;;
36253;SDS011;22291;52.250;21.228;2023-03-01T09:01:13;95.90;;;87.60;;
36253;SDS011;22291;52.250;21.228;2023-03-01T09:03:39;96.65;;;88.17;;
36253;SDS011;22291;52.250;21.228;2023-03-01T09:06:05;95.22;;;87.17;;
36253;SDS011;22291;52.250;21.228;2023-03-01T09:08:34;95.60;;;86.67;;
36253;SDS011;22291;52.250;21.228;2023-03-01T09:11:05;94.65;;;86.55;;
36253;SDS011;22291;52.250;21.228;2023-03-01T09:13:35;96.37;;;87.85;;
36253;SDS011;22291;52.250;21.228;2023-03-01T09:16:02;92.53;;;84.67;;
36253;SDS011;22291;52.250;21.228;2023-03-01T09:18:34;94.47;;;86.53;;
36253;SDS011;22291;52.250;21.228;2023-03-01T09:21:08;94.97;;;86.87;;
36253;SDS011;22291;52.250;21.228;2023-03-01T09:23:40;95.57;;;87.57;;
36253;SDS011;22291;52.250;21.228;2023-03-01T09:26:11;93.12;;;84.77;;
36253;SDS011;22291;52.250;21.228;2023-03-01T09:28:42;94.13;;;85.95;;
36253;SDS011;22291;52.250;21.228;2023-03-01T09:31:11;95.90;;;87.72;;
36253;SDS011;22291;52.250;21.228;2023-03-01T09:33:42;92.00;;;84.17;;
36253;SDS011;22291;52.250;21.228;2023-03-01T09:36:14;93.50;;;85.17;;
36253;SDS011;22291;52.250;21.228;2023-03-01T09:38:46;93.67;;;85.70;;
36253;SDS011;22291;52.250;21.228;2023-03-01T09:43:52;93.30;;;85.53;;
36253;SDS011;22291;52.250;21.228;2023-03-01T09:46:25;93.22;;;85.07;;
36253;SDS011;22291;52.250;21.228;2023-03-01T09:48:57;93.10;;;85.40;;
36253;SDS011;22291;52.250;21.228;2023-03-01T09:51:31;91.65;;;84.20;;
36253;SDS011;22291;52.250;21.228;2023-03-01T09:54:02;89.95;;;82.55;;
36253;SDS011;22291;52.250;21.228;2023-03-01T10:02:02;93.15;;;85.38;;
36253;SDS011;22291;52.250;21.228;2023-03-01T10:05:05;92.90;;;85.50;;
36253;SDS011;22291;52.250;21.228;2023-03-01T10:10:23;91.72;;;84.03;;
36253;SDS011;22291;52.250;21.228;2023-03-01T10:13:04;89.70;;;82.25;;
36253;SDS011;22291;52.250;21.228;2023-03-01T10:15:44;90.12;;;83.17;;
36253;SDS011;22291;52.250;21.228;2023-03-01T10:18:16;90.67;;;83.50;;
36253;SDS011;22291;52.250;21.228;2023-03-01T10:21:20;90.92;;;83.67;;
36253;SDS011;22291;52.250;21.228;2023-03-01T10:23:31;89.92;;;82.65;;
36253;SDS011;22291;52.250;21.228;2023-03-01T10:26:12;91.45;;;83.62;;
36253;SDS011;22291;52.250;21.228;2023-03-01T10:31:20;88.17;;;81.40;;
36253;SDS011;22291;52.250;21.228;2023-03-01T10:34:17;84.32;;;77.72;;
36253;SDS011;22291;52.250;21.228;2023-03-01T10:36:58;85.80;;;79.13;;
36253;SDS011;22291;52.250;21.228;2023-03-01T10:42:37;84.07;;;77.27;;
36253;SDS011;22291;52.250;21.228;2023-03-01T10:50:43;85.50;;;79.07;;
36253;SDS011;22291;52.250;21.228;2023-03-01T10:56:08;25.40;;;13.10;;
36253;SDS011;22291;52.250;21.228;2023-03-01T10:58:40;30.85;;;12.33;;
36253;SDS011;22291;52.250;21.228;2023-03-01T11:01:29;81.70;;;75.85;;
36253;SDS011;22291;52.250;21.228;2023-03-01T11:04:12;84.83;;;78.42;;
36253;SDS011;22291;52.250;21.228;2023-03-01T11:06:40;86.55;;;80.22;;
36253;SDS011;22291;52.250;21.228;2023-03-01T11:09:17;85.92;;;78.97;;
36253;SDS011;22291;52.250;21.228;2023-03-01T11:11:53;86.15;;;79.42;;
36253;SDS011;22291;52.250;21.228;2023-03-01T11:14:23;86.87;;;80.25;;
36253;SDS011;22291;52.250;21.228;2023-03-01T11:17:10;85.62;;;79.42;;
36253;SDS011;22291;52.250;21.228;2023-03-01T11:19:59;82.62;;;76.30;;
36253;SDS011;22291;52.250;21.228;2023-03-01T11:22:29;86.75;;;79.97;;
36253;SDS011;22291;52.250;21.228;2023-03-01T11:24:59;85.07;;;78.95;;
36253;SDS011;22291;52.250;21.228;2023-03-01T11:33:10;27.05;;;15.53;;
36253;SDS011;22291;52.250;21.228;2023-03-01T11:35:47;86.70;;;80.30;;
36253;SDS011;22291;52.250;21.228;2023-03-01T11:38:28;55.35;;;50.63;;
36253;SDS011;22291;52.250;21.228;2023-03-01T11:41:01;32.25;;;17.25;;
36253;SDS011;22291;52.250;21.228;2023-03-01T11:43:44;27.27;;;17.15;;
36253;SDS011;22291;52.250;21.228;2023-03-01T12:00:49;17.57;;;11.48;;
36253;SDS011;22291;52.250;21.228;2023-03-01T12:18:08;25.60;;;15.98;;
36253;SDS011;22291;52.250;21.228;2023-03-01T12:21:25;21.97;;;14.07;;
36253;SDS011;22291;52.250;21.228;2023-03-01T12:28:02;16.95;;;11.10;;
36253;SDS011;22291;52.250;21.228;2023-03-01T12:32:56;20.00;;;11.90;;
36253;SDS011;22291;52.250;21.228;2023-03-01T12:35:39;19.42;;;11.25;;
36253;SDS011;22291;52.250;21.228;2023-03-01T12:41:27;80.50;;;75.00;;
36253;SDS011;22291;52.250;21.228;2023-03-01T12:50:01;81.53;;;75.47;;
36253;SDS011;22291;52.250;21.228;2023-03-01T12:52:40;43.75;;;40.28;;
36253;SDS011;22291;52.250;21.228;2023-03-01T12:55:29;83.10;;;77.12;;
36253;SDS011;22291;52.250;21.228;2023-03-01T13:15:42;22.67;;;12.07;;
36253;SDS011;22291;52.250;21.228;2023-03-01T13:20:52;83.92;;;77.97;;
36253;SDS011;22291;52.250;21.228;2023-03-01T13:23:24;83.58;;;77.45;;
36253;SDS011;22291;52.250;21.228;2023-03-01T13:26:01;85.17;;;78.90;;
36253;SDS011;22291;52.250;21.228;2023-03-01T13:33:54;87.60;;;81.05;;
36253;SDS011;22291;52.250;21.228;2023-03-01T13:39:02;85.60;;;79.40;;
36253;SDS011;22291;52.250;21.228;2023-03-01T13:44:12;88.40;;;81.50;;
36253;SDS011;22291;52.250;21.228;2023-03-01T13:49:42;90.38;;;83.47;;
36253;SDS011;22291;52.250;21.228;2023-03-01T13:55:16;87.65;;;80.83;;
36253;SDS011;22291;52.250;21.228;2023-03-01T13:58:44;85.92;;;79.20;;
36253;SDS011;22291;52.250;21.228;2023-03-01T14:01:02;85.85;;;79.58;;
36253;SDS011;22291;52.250;21.228;2023-03-01T14:03:39;87.20;;;79.87;;
36253;SDS011;22291;52.250;21.228;2023-03-01T14:06:12;87.42;;;80.67;;
36253;SDS011;22291;52.250;21.228;2023-03-01T14:08:43;86.97;;;79.82;;
36253;SDS011;22291;52.250;21.228;2023-03-01T14:20:27;90.05;;;82.92;;
36253;SDS011;22291;52.250;21.228;2023-03-01T14:22:55;89.90;;;82.82;;
36253;SDS011;22291;52.250;21.228;2023-03-01T14:25:27;91.02;;;83.75;;
36253;SDS011;22291;52.250;21.228;2023-03-01T14:30:49;94.17;;;85.80;;
36253;SDS011;22291;52.250;21.228;2023-03-01T14:36:00;49.15;;;44.23;;
36253;SDS011;22291;52.250;21.228;2023-03-01T14:38:41;66.05;;;60.08;;
36253;SDS011;22291;52.250;21.228;2023-03-01T14:43:45;32.23;;;15.63;;
36253;SDS011;22291;52.250;21.228;2023-03-01T14:46:26;44.55;;;39.55;;
36253;SDS011;22291;52.250;21.228;2023-03-01T14:49:10;81.80;;;74.58;;
36253;SDS011;22291;52.250;21.228;2023-03-01T14:51:43;83.05;;;75.85;;
36253;SDS011;22291;52.250;21.228;2023-03-01T14:54:27;32.50;;;15.93;;
36253;SDS011;22291;52.250;21.228;2023-03-01T14:57:21;33.98;;;17.55;;
36253;SDS011;22291;52.250;21.228;2023-03-01T14:59:53;81.72;;;74.50;;
36253;SDS011;22291;52.250;21.228;2023-03-01T15:02:29;89.90;;;82.57;;
36253;SDS011;22291;52.250;21.228;2023-03-01T15:05:02;102.45;;;93.62;;
36253;SDS011;22291;52.250;21.228;2023-03-01T15:07:33;77.47;;;69.95;;
36253;SDS011;22291;52.250;21.228;2023-03-01T15:10:06;98.45;;;90.03;;
36253;SDS011;22291;52.250;21.228;2023-03-01T15:12:41;96.00;;;87.90;;
36253;SDS011;22291;52.250;21.228;2023-03-01T15:18:05;103.53;;;92.55;;
36253;SDS011;22291;52.250;21.228;2023-03-01T15:20:45;88.92;;;80.65;;
36253;SDS011;22291;52.250;21.228;2023-03-01T15:23:19;95.28;;;86.85;;
36253;SDS011;22291;52.250;21.228;2023-03-01T15:25:53;105.67;;;95.57;;
36253;SDS011;22291;52.250;21.228;2023-03-01T15:28:25;245.93;;;156.60;;
36253;SDS011;22291;52.250;21.228;2023-03-01T15:31:07;100.23;;;91.33;;
36253;SDS011;22291;52.250;21.228;2023-03-01T15:34:07;96.30;;;87.88;;
36253;SDS011;22291;52.250;21.228;2023-03-01T15:36:54;95.62;;;87.22;;
36253;SDS011;22291;52.250;21.228;2023-03-01T15:42:13;95.60;;;87.10;;
36253;SDS011;22291;52.250;21.228;2023-03-01T15:45:42;93.03;;;85.32;;
36253;SDS011;22291;52.250;21.228;2023-03-01T15:47:47;95.80;;;87.67;;
36253;SDS011;22291;52.250;21.228;2023-03-01T15:50:23;95.83;;;87.75;;
36253;SDS011;22291;52.250;21.228;2023-03-01T15:52:54;92.92;;;84.95;;
36253;SDS011;22291;52.250;21.228;2023-03-01T15:55:27;94.37;;;86.70;;
36253;SDS011;22291;52.250;21.228;2023-03-01T15:58:00;94.42;;;86.20;;
36253;SDS011;22291;52.250;21.228;2023-03-01T16:00:33;96.05;;;87.53;;
36253;SDS011;22291;52.250;21.228;2023-03-01T16:03:00;96.78;;;88.22;;
36253;SDS011;22291;52.250;21.228;2023-03-01T16:05:31;94.95;;;86.75;;
36253;SDS011;22291;52.250;21.228;2023-03-01T16:08:01;94.45;;;86.42;;
36253;SDS011;22291;52.250;21.228;2023-03-01T16:10:35;97.25;;;88.55;;
36253;SDS011;22291;52.250;21.228;2023-03-01T16:13:04;93.87;;;86.12;;
36253;SDS011;22291;52.250;21.228;2023-03-01T16:15:32;101.50;;;93.20;;
36253;SDS011;22291;52.250;21.228;2023-03-01T16:18:02;95.03;;;86.75;;
36253;SDS011;22291;52.250;21.228;2023-03-01T16:20:31;101.82;;;92.92;;
36253;SDS011;22291;52.250;21.228;2023-03-01T16:23:04;94.28;;;86.17;;
36253;SDS011;22291;52.250;21.228;2023-03-01T16:25:34;94.55;;;86.22;;
36253;SDS011;22291;52.250;21.228;2023-03-01T16:28:04;93.60;;;85.70;;
36253;SDS011;22291;52.250;21.228;2023-03-01T16:30:34;94.75;;;86.75;;
36253;SDS011;22291;52.250;21.228;2023-03-01T16:33:04;97.17;;;88.92;;
36253;SDS011;22291;52.250;21.228;2023-03-01T16:35:34;95.20;;;87.25;;
36253;SDS011;22291;52.250;21.228;2023-03-01T16:38:08;109.07;;;98.17;;
36253;SDS011;22291;52.250;21.228;2023-03-01T16:40:38;98.03;;;88.92;;
36253;SDS011;22291;52.250;21.228;2023-03-01T16:43:06;95.32;;;87.27;;
36253;SDS011;22291;52.250;21.228;2023-03-01T16:45:36;92.53;;;84.70;;
36253;SDS011;22291;52.250;21.228;2023-03-01T16:48:16;90.17;;;82.35;;
36253;SDS011;22291;52.250;21.228;2023-03-01T16:51:00;96.25;;;87.67;;
36253;SDS011;22291;52.250;21.228;2023-03-01T16:53:28;94.05;;;86.02;;
36253;SDS011;22291;52.250;21.228;2023-03-01T16:55:57;94.58;;;86.45;;
36253;SDS011;22291;52.250;21.228;2023-03-01T17:01:00;95.92;;;87.72;;
36253;SDS011;22291;52.250;21.228;2023-03-01T17:03:39;99.30;;;90.67;;